Time;durP1;ratioP1;P1;durP2;ratioP2;P2;SDS_P1;SDS_P2;PMS_P1;PMS_P2;Temp;Humidity;BMP_temperature;BMP_pressure;BME280_temperature;BME280_humidity;BME280_pressure;Samples;Min_cycle;Max_cycle;Signal;HPM_P1;HPM_P2
2022/07/24 00:01:38;;;;;;;4.57;1.90;;;;;;;17.65;58.55;101544.31;5079180;27;20056;-74
2022/07/24 00:04:05;;;;;;;6.28;2.15;;;;;;;17.56;58.57;101544.03;5069544;28;20049;-74
2022/07/24 00:06:32;;;;;;;3.30;1.92;;;;;;;17.44;58.76;101533.31;5068693;28;20052;-74
2022/07/24 00:08:59;;;;;;;3.20;1.92;;;;;;;17.30;58.80;101544.00;5059040;28;20091;-74
2022/07/24 00:11:26;;;;;;;3.72;2.05;;;;;;;17.15;59.24;101545.03;5073462;28;20040;-74
2022/07/24 00:13:52;;;;;;;3.63;2.00;;;;;;;16.93;59.70;101539.44;5060755;28;20115;-75
2022/07/24 00:16:18;;;;;;;3.05;1.95;;;;;;;16.87;60.34;101540.69;5047419;28;20420;-74
2022/07/24 00:18:46;;;;;;;3.05;1.90;;;;;;;16.91;59.83;101550.16;5065053;28;20044;-74
2022/07/24 00:21:12;;;;;;;2.63;1.77;;;;;;;16.61;60.81;101552.13;5074484;28;20044;-74
2022/07/24 00:23:39;;;;;;;4.50;1.70;;;;;;;16.58;61.50;101560.25;5067387;28;20071;-75
2022/07/24 00:26:06;;;;;;;7.38;3.05;;;;;;;16.71;61.41;101555.88;5069996;28;20049;-74
2022/07/24 00:28:32;;;;;;;4.78;1.77;;;;;;;16.54;61.39;101562.22;5059294;28;20068;-74
2022/07/24 00:30:58;;;;;;;3.03;1.65;;;;;;;16.58;62.55;101554.13;5067028;28;20047;-74
2022/07/24 00:33:25;;;;;;;2.30;1.48;;;;;;;16.72;62.51;101562.88;5068038;28;20067;-74
2022/07/24 00:35:53;;;;;;;7.50;1.77;;;;;;;16.75;62.43;101554.72;5066719;28;20106;-74
2022/07/24 00:38:19;;;;;;;6.00;1.63;;;;;;;16.82;62.47;101561.31;5070935;28;20106;-74
2022/07/24 00:40:45;;;;;;;2.92;1.70;;;;;;;16.78;62.37;101565.13;5069577;28;20495;-74
2022/07/24 00:43:12;;;;;;;4.25;1.90;;;;;;;16.60;63.00;101568.94;5067486;28;20047;-74
2022/07/24 00:45:39;;;;;;;3.15;1.67;;;;;;;16.28;65.05;101562.16;5067114;28;20101;-74
2022/07/24 00:48:06;;;;;;;3.20;1.73;;;;;;;15.67;67.79;101559.78;5069434;28;20533;-74
2022/07/24 00:50:33;;;;;;;4.88;1.70;;;;;;;15.27;69.62;101563.84;5060348;28;20045;-74
2022/07/24 00:53:00;;;;;;;5.00;2.00;;;;;;;15.17;71.23;101570.63;5048765;28;20060;-74
2022/07/24 00:55:28;;;;;;;2.55;1.65;;;;;;;15.43;70.23;101562.88;5048075;28;20045;-74
2022/07/24 00:57:54;;;;;;;3.90;1.70;;;;;;;15.64;69.35;101563.44;5046998;28;20057;-74
2022/07/24 01:00:22;;;;;;;4.32;1.83;;;;;;;16.07;67.06;101564.34;5047024;28;20533;-74
2022/07/24 01:02:49;;;;;;;2.80;1.60;;;;;;;16.12;66.61;101562.25;5048243;28;20107;-74
2022/07/24 01:05:15;;;;;;;2.60;1.50;;;;;;;15.76;67.64;101568.00;5046800;28;20049;-75
2022/07/24 01:07:42;;;;;;;2.95;1.50;;;;;;;15.20;69.69;101558.09;5046758;28;20048;-74
2022/07/24 01:10:10;;;;;;;4.18;1.70;;;;;;;14.83;71.75;101572.53;5047183;28;20049;-74
2022/07/24 01:12:38;;;;;;;12.13;1.70;;;;;;;14.58;73.13;101565.13;5046962;28;20072;-74
2022/07/24 01:15:06;;;;;;;3.80;1.88;;;;;;;14.92;71.73;101561.47;5046280;28;20041;-74
2022/07/24 01:17:35;;;;;;;3.03;1.63;;;;;;;14.81;71.78;101565.66;5054536;28;20102;-74
2022/07/24 01:20:03;;;;;;;3.33;1.50;;;;;;;14.57;72.91;101560.78;5064959;28;20074;-74
2022/07/24 01:22:30;;;;;;;4.75;1.60;;;;;;;14.59;72.55;101560.72;5088039;28;20089;-74
2022/07/24 01:24:57;;;;;;;4.88;1.98;;;;;;;14.53;72.88;101575.09;5078952;28;20068;-74
2022/07/24 01:27:25;;;;;;;3.83;1.90;;;;;;;14.49;73.16;101567.41;5058693;28;20049;-74
2022/07/24 01:29:52;;;;;;;3.97;2.35;;;;;;;14.44;73.21;101572.97;5056072;28;20132;-75
2022/07/24 01:32:18;;;;;;;3.22;1.90;;;;;;;14.36;73.56;101561.97;5046932;28;20095;-74
2022/07/24 01:34:45;;;;;;;4.05;1.88;;;;;;;14.38;73.93;101568.00;5052337;28;20100;-73
2022/07/24 01:37:11;;;;;;;3.47;2.00;;;;;;;14.88;72.02;101574.94;5084217;28;20052;-74
2022/07/24 01:39:39;;;;;;;5.13;2.20;;;;;;;15.38;69.86;101564.94;5077756;28;20123;-74
2022/07/24 01:42:05;;;;;;;4.22;1.80;;;;;;;15.60;68.69;101556.63;5067234;28;20044;-73
2022/07/24 01:44:32;;;;;;;3.78;2.05;;;;;;;15.64;67.87;101554.66;5067396;28;20052;-74
2022/07/24 01:46:58;;;;;;;2.90;1.92;;;;;;;15.39;68.29;101556.09;5080094;28;20067;-73
2022/07/24 01:49:24;;;;;;;4.40;2.05;;;;;;;14.87;70.33;101560.00;5082253;28;20044;-73
2022/07/24 01:51:51;;;;;;;4.65;2.33;;;;;;;14.83;70.58;101561.13;5058004;28;20109;-72
2022/07/24 01:54:17;;;;;;;4.78;2.17;;;;;;;14.87;71.21;101574.06;5068018;28;20086;-72
2022/07/24 01:56:45;;;;;;;6.25;2.75;;;;;;;14.98;71.21;101565.53;5066172;28;20044;-72
2022/07/24 01:59:11;;;;;;;3.75;2.60;;;;;;;15.21;70.72;101559.78;5066141;28;20044;-72
2022/07/24 02:01:38;;;;;;;4.82;2.72;;;;;;;15.26;70.50;101565.66;5067162;28;20074;-72
2022/07/24 02:04:04;;;;;;;6.28;3.08;;;;;;;15.30;70.29;101564.53;5064888;28;20040;-72
2022/07/24 02:06:31;;;;;;;5.82;3.17;;;;;;;15.43;69.57;101562.88;5065332;28;20121;-72
2022/07/24 02:08:57;;;;;;;6.35;2.97;;;;;;;15.70;68.57;101563.09;5066450;28;20094;-72
2022/07/24 02:11:23;;;;;;;4.50;2.85;;;;;;;15.88;67.76;101553.19;5065994;28;20044;-73
2022/07/24 02:13:52;;;;;;;4.70;2.65;;;;;;;15.94;67.33;101558.94;5066614;28;20041;-73
2022/07/24 02:16:18;;;;;;;3.70;2.38;;;;;;;15.88;65.61;101561.97;5067385;28;20045;-72
2022/07/24 02:18:45;;;;;;;5.72;2.80;;;;;;;15.89;65.79;101554.91;5065104;28;20097;-72
2022/07/24 02:21:11;;;;;;;4.68;2.85;;;;;;;15.94;66.20;101561.59;5065602;28;20126;-73
2022/07/24 02:23:37;;;;;;;4.55;2.70;;;;;;;15.56;67.93;101573.59;5067466;28;20106;-73
2022/07/24 02:26:05;;;;;;;4.70;2.88;;;;;;;15.23;70.08;101571.13;5065908;28;20048;-73
2022/07/24 02:28:31;;;;;;;4.75;3.03;;;;;;;15.11;69.97;101571.84;5066249;28;20040;-72
2022/07/24 02:30:59;;;;;;;5.40;3.20;;;;;;;14.94;70.69;101561.38;5067078;28;20040;-73
2022/07/24 02:33:25;;;;;;;5.55;3.35;;;;;;;14.68;72.71;101562.81;5065798;28;20470;-73
2022/07/24 02:35:52;;;;;;;9.80;3.13;;;;;;;14.88;71.72;101565.22;5066176;28;20045;-73
2022/07/24 02:38:18;;;;;;;4.78;2.63;;;;;;;14.83;71.65;101563.75;5069832;28;20561;-73
2022/07/24 02:40:44;;;;;;;6.28;3.25;;;;;;;14.63;71.58;101571.97;5067234;28;20086;-73
2022/07/24 02:43:11;;;;;;;4.13;3.00;;;;;;;15.11;70.37;101563.91;5062458;28;20070;-72
2022/07/24 02:45:37;;;;;;;4.53;2.90;;;;;;;15.33;69.13;101553.81;5077295;27;20049;-73
2022/07/24 02:48:05;;;;;;;6.93;2.97;;;;;;;15.18;69.35;101562.63;5068758;28;20465;-73
2022/07/24 02:50:35;;;;;;;5.47;3.05;;;;;;;15.10;69.19;101580.69;5082224;28;20056;-73
2022/07/24 02:53:01;;;;;;;3.85;2.90;;;;;;;15.15;69.73;101568.06;5058656;28;20064;-73
2022/07/24 02:55:28;;;;;;;5.60;3.00;;;;;;;15.22;69.16;101566.78;5062163;28;20041;-73
2022/07/24 02:57:55;;;;;;;9.25;2.60;;;;;;;14.98;70.06;101573.47;5069535;28;20048;-73
2022/07/24 03:00:21;;;;;;;6.82;3.45;;;;;;;15.18;70.00;101573.19;5070495;28;20067;-73
2022/07/24 03:02:47;;;;;;;5.13;3.40;;;;;;;15.45;69.00;101576.00;5062699;27;20266;-73
2022/07/24 03:05:15;;;;;;;3.85;2.72;;;;;;;15.50;68.27;101574.84;5090313;27;20132;-73
2022/07/24 03:07:42;;;;;;;4.38;2.45;;;;;;;15.52;66.50;101575.59;5071846;28;20439;-74
2022/07/24 03:10:11;;;;;;;5.53;2.63;;;;;;;15.45;66.44;101581.28;5051798;28;20095;-73
2022/07/24 03:12:37;;;;;;;3.60;2.22;;;;;;;15.47;65.65;101590.00;5056516;28;20394;-74
2022/07/24 03:15:05;;;;;;;4.95;2.30;;;;;;;15.50;65.21;101589.84;5074996;27;20556;-74
2022/07/24 03:17:32;;;;;;;4.78;2.25;;;;;;;15.47;65.10;101584.69;5083820;27;20059;-74
2022/07/24 03:19:58;;;;;;;3.03;1.92;;;;;;;15.34;64.88;101602.19;5089047;27;20040;-73
2022/07/24 03:22:26;;;;;;;3.20;2.00;;;;;;;15.18;64.69;101594.31;5075473;27;20048;-74
2022/07/24 03:24:52;;;;;;;6.95;2.20;;;;;;;15.22;64.78;101595.84;5072101;28;20072;-73
2022/07/24 03:27:19;;;;;;;4.07;2.17;;;;;;;15.03;64.90;101600.47;5063678;28;20053;-75
2022/07/24 03:29:46;;;;;;;3.22;2.13;;;;;;;14.80;65.32;101604.41;5081035;27;20044;-75
2022/07/24 03:32:12;;;;;;;3.15;2.30;;;;;;;14.04;68.00;101603.19;5079756;27;20045;-73
2022/07/24 03:34:38;;;;;;;7.05;3.38;;;;;;;13.67;73.58;101611.31;5072479;27;20127;-74
2022/07/24 03:37:05;;;;;;;6.63;3.50;;;;;;;13.67;74.78;101602.56;5059025;28;20060;-73
2022/07/24 03:39:32;;;;;;;7.00;3.63;;;;;;;14.13;73.44;101607.16;5050580;28;20098;-73
2022/07/24 03:41:59;;;;;;;5.53;3.38;;;;;;;14.33;72.67;101596.41;5053123;28;20047;-73
2022/07/24 03:44:25;;;;;;;5.30;3.38;;;;;;;14.54;71.46;101604.97;5081884;27;20101;-72
2022/07/24 03:46:51;;;;;;;8.05;3.53;;;;;;;14.48;71.06;101600.91;5087256;27;20048;-73
2022/07/24 03:49:18;;;;;;;7.22;3.30;;;;;;;14.69;71.09;101595.38;5075307;27;20090;-74
2022/07/24 03:51:44;;;;;;;5.68;3.83;;;;;;;14.92;70.64;101598.44;5085808;27;20044;-73
2022/07/24 03:54:10;;;;;;;4.68;3.22;;;;;;;15.10;69.73;101597.41;5070179;28;20495;-72
2022/07/24 03:56:38;;;;;;;4.93;3.13;;;;;;;14.85;69.50;101596.22;5073744;27;20048;-74
2022/07/24 03:59:04;;;;;;;8.90;2.95;;;;;;;14.36;71.75;101604.19;5069465;27;20039;-73
2022/07/24 04:01:31;;;;;;;5.57;3.70;;;;;;;14.47;72.77;101606.25;5078744;27;20041;-73
2022/07/24 04:03:58;;;;;;;6.47;3.40;;;;;;;14.85;71.86;101601.50;5068059;28;20044;-73
2022/07/24 04:06:24;;;;;;;5.65;4.10;;;;;;;15.08;71.15;101591.34;5068492;27;20048;-73
2022/07/24 04:08:51;;;;;;;8.45;3.70;;;;;;;15.25;70.23;101594.81;5069526;27;20067;-73
2022/07/24 04:11:18;;;;;;;6.07;3.20;;;;;;;15.11;69.88;101591.16;5082466;27;20057;-74
2022/07/24 04:13:45;;;;;;;5.90;3.00;;;;;;;15.13;69.55;101595.50;5067962;28;20086;-73
2022/07/24 04:16:12;;;;;;;5.80;3.25;;;;;;;15.27;69.38;101608.78;5089694;27;20101;-73
2022/07/24 04:18:38;;;;;;;5.15;3.30;;;;;;;15.41;69.83;101600.94;5083172;27;20045;-72
2022/07/24 04:21:05;;;;;;;6.40;3.67;;;;;;;15.61;68.95;101603.28;5084693;27;20048;-72
2022/07/24 04:23:31;;;;;;;5.50;3.55;;;;;;;15.74;68.90;101596.31;5067749;27;20052;-72
2022/07/24 04:25:58;;;;;;;5.80;3.60;;;;;;;15.93;68.32;101604.00;5071292;27;20078;-73
2022/07/24 04:28:24;;;;;;;4.18;3.38;;;;;;;16.01;68.80;101604.38;5072782;27;20086;-72
2022/07/24 04:30:52;;;;;;;4.90;3.00;;;;;;;16.00;68.15;101603.53;5074161;27;20139;-73
2022/07/24 04:33:18;;;;;;;3.63;2.40;;;;;;;16.01;67.78;101604.38;5067664;28;20396;-73
2022/07/24 04:35:46;;;;;;;4.60;2.42;;;;;;;15.97;67.09;101605.50;5061246;28;20458;-73
2022/07/24 04:38:13;;;;;;;3.85;2.58;;;;;;;15.84;66.83;101593.97;5060267;28;20558;-73
2022/07/24 04:40:39;;;;;;;4.40;2.90;;;;;;;15.70;68.28;101601.88;5017319;28;1246174;-74
2022/07/24 04:43:06;;;;;;;7.00;3.85;;;;;;;16.11;68.53;101594.97;5073673;27;20040;-73
2022/07/24 04:45:32;;;;;;;5.30;4.00;;;;;;;16.43;68.06;101599.13;5070559;27;20436;-73
2022/07/24 04:48:00;;;;;;;9.13;4.45;;;;;;;16.82;67.64;101597.56;5071285;27;20051;-73
2022/07/24 04:50:27;;;;;;;5.80;4.30;;;;;;;17.14;66.78;101591.03;5078877;27;20407;-74
2022/07/24 04:52:53;;;;;;;6.80;3.90;;;;;;;17.35;66.19;101591.41;5068422;28;20036;-73
2022/07/24 04:55:20;;;;;;;5.88;3.83;;;;;;;17.49;65.04;101596.66;5071134;27;20048;-72
2022/07/24 04:57:46;;;;;;;5.22;3.08;;;;;;;17.56;65.05;101597.06;5071431;27;20044;-72
2022/07/24 05:00:14;;;;;;;6.20;3.13;;;;;;;17.74;64.42;101591.41;5067908;28;20045;-72
2022/07/24 05:02:41;;;;;;;6.38;2.88;;;;;;;17.65;64.18;101586.75;5073249;27;20058;-73
2022/07/24 05:05:09;;;;;;;8.45;3.05;;;;;;;17.78;63.98;101584.94;5074954;27;20098;-73
2022/07/24 05:07:35;;;;;;;4.85;3.20;;;;;;;17.90;62.80;101597.38;5071888;27;20511;-73
2022/07/24 05:10:01;;;;;;;7.22;3.08;;;;;;;17.68;63.24;101591.84;5077280;27;20101;-73
2022/07/24 05:12:28;;;;;;;4.82;3.20;;;;;;;17.82;63.51;101602.34;5069089;27;20045;-73
2022/07/24 05:14:54;;;;;;;5.80;2.90;;;;;;;18.20;63.00;101602.38;5081683;27;20048;-73
2022/07/24 05:17:20;;;;;;;14.48;3.13;;;;;;;18.46;62.48;101605.84;5071207;27;20098;-73
2022/07/24 05:19:47;;;;;;;7.57;3.47;;;;;;;18.84;61.45;101597.84;5082909;27;20044;-73
2022/07/24 05:22:15;;;;;;;5.30;2.70;;;;;;;19.00;60.79;101594.88;5070842;27;20074;-73
2022/07/24 05:24:41;;;;;;;7.25;2.90;;;;;;;18.54;61.81;101600.03;5082411;27;20044;-76
2022/07/24 05:27:07;;;;;;;3.25;2.47;;;;;;;18.92;60.13;101590.13;5072335;27;20044;-74
2022/07/24 05:29:34;;;;;;;5.25;3.45;;;;;;;19.61;58.12;101584.06;5075397;27;20055;-74
2022/07/24 05:32:00;;;;;;;6.63;3.70;;;;;;;19.55;57.51;101587.19;5074218;27;20109;-73
2022/07/24 05:34:26;;;;;;;8.90;3.08;;;;;;;19.56;58.05;101582.72;5069464;28;20044;-75
2022/07/24 05:36:53;;;;;;;9.65;2.70;;;;;;;20.20;56.87;101590.09;5066735;28;20044;-73
2022/07/24 05:39:21;;;;;;;3.83;2.50;;;;;;;20.66;55.76;101581.97;5069691;28;20040;-74
2022/07/24 05:41:47;;;;;;;4.13;2.55;;;;;;;20.91;55.41;101586.19;5096599;27;20047;-74
2022/07/24 05:44:13;;;;;;;4.30;3.03;;;;;;;20.68;56.10;101584.53;5075372;27;20044;-75
2022/07/24 05:46:40;;;;;;;5.07;2.92;;;;;;;21.35;53.72;101578.06;5083896;27;20508;-74
2022/07/24 05:49:06;;;;;;;3.28;2.25;;;;;;;21.01;54.24;101576.44;5072559;27;20446;-74
2022/07/24 05:51:33;;;;;;;4.93;2.20;;;;;;;20.75;52.81;101581.25;5077533;27;20488;-74
2022/07/24 05:54:02;;;;;;;3.13;2.03;;;;;;;21.29;50.95;101578.56;5079175;27;20041;-74
2022/07/24 05:56:30;;;;;;;3.42;1.77;;;;;;;21.28;52.10;101579.56;5067024;27;20043;-74
2022/07/24 05:58:57;;;;;;;6.35;2.17;;;;;;;21.73;50.56;101582.81;5073510;27;20049;-74
2022/07/24 06:01:23;;;;;;;4.57;2.20;;;;;;;21.54;51.28;101573.84;5065765;28;20050;-74
2022/07/24 06:03:49;;;;;;;3.20;2.30;;;;;;;21.73;51.47;101568.59;5074411;27;20048;-74
2022/07/24 06:06:16;;;;;;;4.18;2.30;;;;;;;22.09;49.94;101578.00;5071771;27;20110;-74
2022/07/24 06:08:42;;;;;;;2.92;2.25;;;;;;;21.39;50.44;101575.97;5056825;28;20048;-74
2022/07/24 06:11:09;;;;;;;4.57;2.22;;;;;;;21.53;51.79;101582.81;5058748;28;20098;-74
2022/07/24 06:13:36;;;;;;;5.63;2.15;;;;;;;22.11;50.66;101574.22;5075619;28;20044;-74
2022/07/24 06:16:03;;;;;;;5.68;2.67;;;;;;;21.88;50.93;101580.66;5074954;28;20515;-74
2022/07/24 06:18:29;;;;;;;4.60;2.22;;;;;;;22.34;49.95;101577.56;5060843;27;20049;-74
2022/07/24 06:20:56;;;;;;;10.25;2.38;;;;;;;22.81;49.53;101576.03;5046106;28;20076;-74
2022/07/24 06:23:22;;;;;;;5.57;2.70;;;;;;;22.48;49.14;101581.66;5038057;28;20041;-74
2022/07/24 06:25:49;;;;;;;3.78;2.70;;;;;;;23.23;48.56;101584.66;5069694;27;20049;-75
2022/07/24 06:28:15;;;;;;;5.72;2.08;;;;;;;23.87;46.39;101584.94;5053680;28;20044;-75
2022/07/24 06:30:43;;;;;;;4.47;1.90;;;;;;;22.69;48.46;101587.81;5058214;27;20465;-74
2022/07/24 06:33:09;;;;;;;2.78;1.92;;;;;;;22.36;48.08;101590.78;5070023;27;20041;-74
2022/07/24 06:35:35;;;;;;;7.32;2.20;;;;;;;21.86;50.23;101585.28;5080999;28;20044;-74
2022/07/24 06:38:02;;;;;;;3.33;2.40;;;;;;;21.78;50.69;101587.75;5059037;28;20060;-74
2022/07/24 06:40:29;;;;;;;5.25;2.90;;;;;;;22.54;48.06;101586.50;5086274;28;20125;-73
2022/07/24 06:42:55;;;;;;;5.25;2.92;;;;;;;22.72;48.32;101584.88;5081980;28;20049;-73
2022/07/24 06:45:22;;;;;;;5.68;3.75;;;;;;;23.71;45.45;101582.00;5079983;28;20048;-74
2022/07/24 06:47:49;;;;;;;4.53;2.45;;;;;;;23.94;45.72;101578.00;5076908;28;20461;-74
2022/07/24 06:50:16;;;;;;;6.22;2.45;;;;;;;22.72;46.85;101580.38;5065073;28;20052;-74
2022/07/24 06:52:43;;;;;;;5.72;2.92;;;;;;;23.38;46.81;101580.59;5044945;28;20095;-74
2022/07/24 06:55:10;;;;;;;3.95;2.40;;;;;;;24.31;43.79;101566.47;5047406;28;20064;-67
2022/07/24 06:57:37;;;;;;;7.93;2.50;;;;;;;23.95;43.26;101573.47;5045529;28;20474;-67
2022/07/24 07:00:05;;;;;;;3.03;2.40;;;;;;;22.99;46.16;101578.88;5049570;28;20059;-67
2022/07/24 07:02:32;;;;;;;5.03;2.40;;;;;;;22.78;47.46;101573.63;5062341;28;20102;-67
2022/07/24 07:04:59;;;;;;;4.20;2.33;;;;;;;23.44;47.08;101572.00;5064192;28;20453;-67
2022/07/24 07:07:26;;;;;;;4.13;2.40;;;;;;;23.98;46.11;101568.66;5066036;28;20086;-67
2022/07/24 07:09:52;;;;;;;4.20;2.08;;;;;;;24.66;44.33;101566.56;5062675;28;20052;-67
2022/07/24 07:12:19;;;;;;;6.88;2.28;;;;;;;25.73;43.15;101562.91;5072418;27;20036;-68
2022/07/24 07:14:45;;;;;;;3.22;2.00;;;;;;;25.82;42.07;101558.44;5073535;27;20047;-67
2022/07/24 07:17:11;;;;;;;5.35;2.20;;;;;;;25.76;40.60;101553.72;5085311;27;20101;-67
2022/07/24 07:19:38;;;;;;;4.15;1.83;;;;;;;26.28;40.49;101557.22;5074312;27;20088;-67
2022/07/24 07:22:05;;;;;;;4.13;1.40;;;;;;;25.20;41.13;101560.28;5065323;28;20565;-67
2022/07/24 07:24:32;;;;;;;5.85;1.60;;;;;;;25.61;41.30;101556.09;5062730;28;20044;-67
2022/07/24 07:26:58;;;;;;;11.95;1.60;;;;;;;26.05;40.40;101555.03;5062046;28;20071;-67
2022/07/24 07:29:24;;;;;;;4.00;1.50;;;;;;;25.87;40.53;101556.97;5064534;28;20048;-66
2022/07/24 07:31:51;;;;;;;3.08;1.52;;;;;;;25.33;40.13;101552.69;5062922;28;20458;-67
2022/07/24 07:34:17;;;;;;;4.72;1.52;;;;;;;26.04;40.94;101542.63;5064600;28;20044;-68
2022/07/24 07:36:44;;;;;;;3.78;1.58;;;;;;;26.57;39.67;101557.66;5067891;28;20045;-69
2022/07/24 07:39:14;;;;;;;4.47;1.55;;;;;;;25.96;39.49;101544.44;5058958;28;20045;-68
2022/07/24 07:41:41;;;;;;;2.75;1.80;;;;;;;26.99;39.57;101547.72;5045990;28;20053;-69
2022/07/24 07:44:07;;;;;;;5.35;1.80;;;;;;;26.78;39.89;101550.00;5048087;28;20106;-69
2022/07/24 07:46:34;;;;;;;4.95;2.13;;;;;;;26.62;39.71;101549.94;5046629;28;20065;-69
2022/07/24 07:49:00;;;;;;;3.63;1.85;;;;;;;26.77;39.76;101548.31;5064805;28;20059;-69
2022/07/24 07:51:26;;;;;;;5.43;1.75;;;;;;;27.72;36.80;101546.88;5064159;28;20045;-69
2022/07/24 07:53:53;;;;;;;5.00;1.23;;;;;;;27.16;36.09;101551.28;5082441;27;20070;-68
2022/07/24 07:56:21;;;;;;;3.30;1.25;;;;;;;27.85;35.76;101548.06;5069196;27;20049;-68
2022/07/24 07:58:47;;;;;;;3.13;1.50;;;;;;;27.44;37.09;101546.38;5067601;28;20064;-68
2022/07/24 08:01:13;;;;;;;2.58;1.58;;;;;;;26.81;38.87;101555.06;5065941;28;20044;-68
2022/07/24 08:03:40;;;;;;;5.70;1.60;;;;;;;27.38;36.21;101539.81;5066625;28;20113;-68
2022/07/24 08:06:07;;;;;;;3.78;1.30;;;;;;;28.47;37.80;101537.41;5073599;27;20687;-68
2022/07/24 08:08:33;;;;;;;2.97;1.50;;;;;;;28.21;35.09;101543.09;5080442;27;20078;-68
2022/07/24 08:10:59;;;;;;;2.38;1.25;;;;;;;27.91;37.50;101539.28;5066564;28;20049;-68
2022/07/24 08:13:27;;;;;;;2.75;1.38;;;;;;;27.66;37.52;101534.09;5066383;28;20072;-68
2022/07/24 08:15:53;;;;;;;2.38;1.13;;;;;;;27.62;37.14;101530.06;5066350;28;20040;-69
2022/07/24 08:18:20;;;;;;;4.90;1.70;;;;;;;28.44;35.96;101535.91;5066734;28;20048;-68
2022/07/24 08:20:46;;;;;;;2.92;1.17;;;;;;;29.17;33.24;101531.91;5066293;28;20454;-68
2022/07/24 08:23:12;;;;;;;2.67;1.30;;;;;;;27.48;36.06;101537.00;5065815;28;20491;-67
2022/07/24 08:25:39;;;;;;;3.58;1.40;;;;;;;27.78;36.85;101533.59;5066621;28;20052;-67
2022/07/24 08:28:06;;;;;;;2.08;1.17;;;;;;;28.65;35.98;101535.28;5074548;27;20112;-68
2022/07/24 08:30:33;;;;;;;4.18;1.50;;;;;;;28.44;36.37;101527.81;5073638;27;20455;-68
2022/07/24 08:33:00;;;;;;;3.45;1.20;;;;;;;29.37;32.79;101527.72;5066786;28;20098;-68
2022/07/24 08:35:26;;;;;;;4.22;1.58;;;;;;;29.14;34.62;101537.69;5053665;28;20044;-67
2022/07/24 08:37:52;;;;;;;3.65;1.52;;;;;;;29.17;35.60;101537.31;5063552;28;20041;-67
2022/07/24 08:40:19;;;;;;;2.30;1.40;;;;;;;29.61;33.29;101524.78;5055242;28;20459;-67
2022/07/24 08:42:45;;;;;;;5.78;1.70;;;;;;;29.84;33.38;101520.16;5045040;28;20779;-67
2022/07/24 08:45:12;;;;;;;2.25;1.40;;;;;;;29.88;33.38;101521.50;5052515;28;20119;-69
2022/07/24 08:47:41;;;;;;;4.28;1.63;;;;;;;30.75;33.63;101519.69;5067110;28;20036;-68
2022/07/24 08:50:09;;;;;;;2.67;1.30;;;;;;;30.87;30.82;101514.63;5064353;28;20040;-68
2022/07/24 08:52:38;;;;;;;5.05;1.85;;;;;;;29.98;31.88;101520.38;5064260;28;20121;-68
2022/07/24 08:55:06;;;;;;;4.78;1.85;;;;;;;29.04;33.31;101513.63;5057227;28;20091;-68
2022/07/24 08:57:32;;;;;;;7.32;1.85;;;;;;;29.91;32.22;101504.91;5068978;27;20454;-68
2022/07/24 08:59:59;;;;;;;3.67;1.90;;;;;;;30.16;34.73;101513.53;5064303;28;20044;-68
2022/07/24 09:02:27;;;;;;;3.65;2.10;;;;;;;30.26;31.92;101513.28;5065302;28;20393;-68
2022/07/24 09:04:59;;;;;;;4.57;1.80;;;;;;;29.50;31.49;101511.72;5059057;28;20045;-68
2022/07/24 09:07:28;;;;;;;2.78;2.15;;;;;;;28.56;33.54;101519.31;5052775;28;20052;-68
2022/07/24 09:09:59;;;;;;;7.60;2.53;;;;;;;28.57;34.53;101519.13;5070819;27;20583;-69
2022/07/24 09:12:25;;;;;;;3.30;2.10;;;;;;;29.05;34.06;101512.59;5072501;27;20451;-69
2022/07/24 09:14:52;;;;;;;6.50;2.97;;;;;;;29.14;33.11;101518.78;5066091;28;20416;-69
2022/07/24 09:17:20;;;;;;;11.55;2.50;;;;;;;29.40;32.10;101511.16;5064420;28;20048;-69
2022/07/24 09:19:49;;;;;;;3.97;2.00;;;;;;;30.36;32.95;101514.66;5075929;27;20758;-69
2022/07/24 09:22:35;;;;;;;4.57;1.80;;;;;;;31.26;36.05;101515.00;5086274;27;20055;-69
2022/07/24 09:25:14;;;;;;;3.08;1.90;;;;;;;31.12;31.47;101515.94;5068697;27;20040;-69
2022/07/24 09:27:42;;;;;;;6.10;3.50;;;;;;;30.46;30.60;101513.53;5064218;28;20049;-69
2022/07/24 09:30:10;;;;;;;5.25;2.60;;;;;;;30.37;30.68;101510.94;5065910;28;20157;-69
2022/07/24 09:32:37;;;;;;;5.32;2.25;;;;;;;30.97;31.38;101514.31;5054147;28;20040;-69
2022/07/24 09:35:04;;;;;;;6.90;2.38;;;;;;;31.03;31.40;101510.84;5046272;28;20467;-69
2022/07/24 09:37:32;;;;;;;5.18;3.00;;;;;;;31.76;31.34;101497.69;5053709;28;20484;-69
2022/07/24 09:40:10;;;;;;;3.92;2.85;;;;;;;32.45;29.31;101503.03;5062134;28;20057;-69
2022/07/24 09:42:39;;;;;;;5.03;2.10;;;;;;;32.70;31.45;101506.09;5066879;28;20774;-69
2022/07/24 09:45:08;;;;;;;3.72;2.20;;;;;;;32.95;27.51;101499.03;5077651;28;20048;-69
2022/07/24 09:47:35;;;;;;;4.03;1.80;;;;;;;32.80;27.02;101498.38;5063739;28;20509;-69
2022/07/24 09:50:13;;;;;;;4.22;2.05;;;;;;;32.50;26.59;101511.44;5051994;28;20496;-69
2022/07/24 09:52:41;;;;;;;3.45;1.92;;;;;;;32.57;31.06;101503.28;5074303;28;20523;-69
2022/07/24 09:55:21;;;;;;;3.83;1.75;;;;;;;32.74;27.02;101500.03;5068985;28;20058;-69
2022/07/24 09:57:47;;;;;;;3.22;1.85;;;;;;;32.90;25.63;101501.53;5061949;28;20054;-69
2022/07/24 10:00:15;;;;;;;3.88;2.08;;;;;;;32.64;27.30;101498.75;5061172;28;20044;-69
2022/07/24 10:02:45;;;;;;;6.68;4.00;;;;;;;31.47;27.40;101495.19;5077332;27;20089;-69
2022/07/24 10:05:13;;;;;;;6.97;2.00;;;;;;;30.49;31.03;101503.16;5082623;27;20044;-69
2022/07/24 10:07:42;;;;;;;3.83;1.63;;;;;;;30.64;28.27;101495.00;5077839;27;20052;-69
2022/07/24 10:10:09;;;;;;;4.15;2.30;;;;;;;30.07;30.48;101492.22;5057768;28;20407;-69
2022/07/24 10:12:36;;;;;;;4.00;2.33;;;;;;;29.71;29.64;101487.50;5077445;28;20048;-69
2022/07/24 10:15:04;;;;;;;5.13;2.50;;;;;;;29.95;29.53;101484.56;5056133;28;20626;-68
2022/07/24 10:17:49;;;;;;;6.10;2.15;;;;;;;30.86;30.16;101483.97;5041883;28;20049;-68
2022/07/24 10:20:28;;;;;;;4.13;2.10;;;;;;;31.83;30.80;101474.16;5039335;28;20091;-69
2022/07/24 10:23:04;;;;;;;4.82;2.30;;;;;;;32.46;28.00;101480.28;5062618;28;20637;-69
2022/07/24 10:25:47;;;;;;;4.60;2.50;;;;;;;32.36;27.35;101477.16;5064686;28;20242;-69
2022/07/24 10:28:21;;;;;;;5.03;1.95;;;;;;;32.62;27.22;101484.56;5063086;28;20045;-69
2022/07/24 10:30:48;;;;;;;6.55;3.03;;;;;;;32.63;28.05;101478.91;5061986;28;20095;-69
2022/07/24 10:33:14;;;;;;;5.60;2.30;;;;;;;32.03;26.31;101474.28;5070776;28;20044;-69
2022/07/24 10:35:42;;;;;;;5.85;2.58;;;;;;;32.30;32.30;101470.63;5082812;28;20565;-69
2022/07/24 10:38:20;;;;;;;18.88;7.05;;;;;;;32.34;26.37;101473.78;5084620;28;20047;-69
2022/07/24 10:40:49;;;;;;;5.22;2.88;;;;;;;32.03;29.08;101468.84;5081112;28;20052;-69
2022/07/24 10:43:17;;;;;;;4.75;2.47;;;;;;;32.19;26.48;101470.38;5063067;28;20040;-69
2022/07/24 10:45:45;;;;;;;4.70;2.17;;;;;;;31.78;28.47;101460.34;5076226;27;20051;-69
2022/07/24 10:48:30;;;;;;;4.15;2.35;;;;;;;32.23;27.94;101460.78;5081129;27;20074;-70
2022/07/24 10:51:09;;;;;;;3.50;2.00;;;;;;;33.16;31.24;101462.69;5044413;28;20060;-69
2022/07/24 10:53:49;;;;;;;2.55;1.70;;;;;;;33.69;27.08;101453.44;5044853;28;20067;-69
2022/07/24 10:56:17;;;;;;;3.50;2.05;;;;;;;32.80;26.58;101455.75;5052994;28;20052;-69
2022/07/24 10:59:07;;;;;;;4.95;2.20;;;;;;;32.54;28.15;101463.81;5043483;28;20075;-69
2022/07/24 11:01:37;;;;;;;3.88;1.90;;;;;;;32.85;27.62;101455.16;5027428;28;20136;-69
2022/07/24 11:04:24;;;;;;;2.95;2.00;;;;;;;33.28;27.44;101459.13;5062149;27;20072;-69
2022/07/24 11:06:52;;;;;;;4.90;2.08;;;;;;;33.41;27.73;101443.88;5044266;28;20041;-69
2022/07/24 11:09:22;;;;;;;2.75;1.85;;;;;;;33.93;27.15;101453.75;5035604;28;20482;-69
2022/07/24 11:12:06;;;;;;;3.05;2.10;;;;;;;34.22;27.24;101454.09;5057154;28;20057;-69
2022/07/24 11:14:49;;;;;;;3.92;2.05;;;;;;;33.92;24.32;101452.97;5047327;28;20056;-69
2022/07/24 11:17:38;;;;;;;6.05;2.50;;;;;;;32.63;26.14;101446.31;5069539;27;20050;-69
2022/07/24 11:20:07;;;;;;;5.65;2.33;;;;;;;31.00;28.11;101452.50;5086620;28;20074;-70
2022/07/24 11:22:47;;;;;;;5.13;2.20;;;;;;;31.14;29.58;101450.72;5087701;28;20048;-69
2022/07/24 11:25:17;;;;;;;6.18;2.50;;;;;;;32.03;33.37;101436.28;5080589;28;20044;-69
2022/07/24 11:27:58;;;;;;;5.00;2.40;;;;;;;32.41;26.19;101428.50;5054668;28;20044;-69